Time;durP1;ratioP1;P1;durP2;ratioP2;P2;SDS_P1;SDS_P2;PMS_P1;PMS_P2;Temp;Humidity;BMP_temperature;BMP_pressure;BME280_temperature;BME280_humidity;BME280_pressure;Samples;Min_cycle;Max_cycle;Signal;HPM_P1;HPM_P2
2022/04/05 00:00:51;;;;;;;14.60;11.68;;;;;;;;;;2071733;28;20231;-57
2022/04/05 00:01:51;;;;;;;14.85;11.27;;;;;;;;;;2081342;28;20177;-57
2022/04/05 00:02:51;;;;;;;13.27;11.25;;;;;;;;;;2081471;28;20515;-62
2022/04/05 00:03:51;;;;;;;14.50;11.18;;;;;;;;;;2072908;28;20177;-61
2022/04/05 00:04:52;;;;;;;14.20;11.43;;;;;;;;;;2063806;28;20610;-59
2022/04/05 00:05:52;;;;;;;14.40;11.38;;;;;;;;;;2066544;28;20185;-57
2022/04/05 00:06:52;;;;;;;14.18;10.80;;;;;;;;;;2072213;28;20203;-58
2022/04/05 00:07:52;;;;;;;15.50;11.77;;;;;;;;;;2073938;28;20201;-56
2022/04/05 00:08:53;;;;;;;12.85;10.35;;;;;;;;;;2081036;28;20173;-55
2022/04/05 00:09:53;;;;;;;14.63;11.07;;;;;;;;;;2082038;28;20621;-57
2022/04/05 00:10:53;;;;;;;13.55;10.32;;;;;;;;;;2081332;28;20537;-56
2022/04/05 00:11:54;;;;;;;11.00;8.95;;;;;;;;;;2081588;28;20527;-64
2022/04/05 00:12:54;;;;;;;12.13;9.52;;;;;;;;;;2080874;28;20601;-57
2022/04/05 00:13:55;;;;;;;12.45;9.68;;;;;;;;;;2081798;28;20168;-59
2022/04/05 00:14:55;;;;;;;14.90;10.93;;;;;;;;;;2080158;28;20213;-57
2022/04/05 00:15:55;;;;;;;15.10;10.80;;;;;;;;;;2081976;28;20175;-56
2022/04/05 00:16:56;;;;;;;15.15;10.57;;;;;;;;;;2072494;28;20656;-56
2022/04/05 00:17:56;;;;;;;13.25;9.77;;;;;;;;;;2073574;28;20264;-61
2022/04/05 00:18:56;;;;;;;13.93;11.05;;;;;;;;;;2079939;28;20173;-59
2022/04/05 00:19:58;;;;;;;12.27;9.50;;;;;;;;;;2081825;28;20689;-63
2022/04/05 00:20:58;;;;;;;9.98;8.65;;;;;;;;;;2080962;28;20160;-55
2022/04/05 00:21:58;;;;;;;12.87;8.73;;;;;;;;;;2082092;28;20187;-60
2022/04/05 00:22:58;;;;;;;9.88;8.30;;;;;;;;;;2073112;28;20181;-61
2022/04/05 00:23:59;;;;;;;8.82;7.80;;;;;;;;;;2074145;28;20168;-58
2022/04/05 00:25:00;;;;;;;9.35;8.45;;;;;;;;;;2072445;28;20205;-57
2022/04/05 00:26:00;;;;;;;9.48;7.25;;;;;;;;;;2064326;28;20166;-58
2022/04/05 00:27:00;;;;;;;9.18;7.55;;;;;;;;;;2071534;28;20613;-58
2022/04/05 00:28:02;;;;;;;8.98;8.07;;;;;;;;;;2082064;28;20176;-57
2022/04/05 00:29:02;;;;;;;9.70;7.40;;;;;;;;;;2077673;28;20187;-56
2022/04/05 00:30:02;;;;;;;8.73;7.82;;;;;;;;;;2081840;28;20177;-58
2022/04/05 00:31:03;;;;;;;7.93;6.78;;;;;;;;;;2077882;28;20235;-61
2022/04/05 00:32:03;;;;;;;9.75;7.68;;;;;;;;;;2076651;28;20672;-63
2022/04/05 00:33:03;;;;;;;7.72;7.03;;;;;;;;;;2081568;28;20237;-60
2022/04/05 00:34:04;;;;;;;9.95;7.15;;;;;;;;;;2080808;28;20166;-57
2022/04/05 00:35:05;;;;;;;8.93;7.65;;;;;;;;;;2068721;28;20173;-54
2022/04/05 00:36:05;;;;;;;7.82;7.10;;;;;;;;;;2071165;28;20173;-62
2022/04/05 00:37:06;;;;;;;9.70;8.70;;;;;;;;;;2068233;28;20560;-61
2022/04/05 00:38:08;;;;;;;11.05;8.40;;;;;;;;;;2070350;28;20169;-56
2022/04/05 00:39:09;;;;;;;9.52;7.80;;;;;;;;;;2080512;28;20179;-59
2022/04/05 00:40:10;;;;;;;11.20;8.90;;;;;;;;;;2071879;28;20247;-60
2022/04/05 00:41:10;;;;;;;12.02;9.43;;;;;;;;;;2072799;28;20179;-61
2022/04/05 00:42:11;;;;;;;10.50;9.40;;;;;;;;;;2077972;28;20177;-53
2022/04/05 00:43:11;;;;;;;13.60;9.35;;;;;;;;;;2077842;28;20590;-58
2022/04/05 00:44:11;;;;;;;11.90;9.30;;;;;;;;;;2071466;28;20193;-58
2022/04/05 00:45:15;;;;;;;10.87;8.93;;;;;;;;;;2064802;28;20172;-61
2022/04/05 00:46:16;;;;;;;12.57;10.27;;;;;;;;;;2064029;28;20252;-59
2022/04/05 00:47:18;;;;;;;13.27;9.68;;;;;;;;;;2061589;28;20228;-60
2022/04/05 00:48:37;;;;;;;11.77;9.68;;;;;;;;;;2067471;28;20573;-62
2022/04/05 00:49:37;;;;;;;11.80;8.95;;;;;;;;;;2076043;28;20533;-58
2022/04/05 00:50:38;;;;;;;12.10;9.73;;;;;;;;;;2081214;28;20172;-60
2022/04/05 00:51:38;;;;;;;12.40;9.40;;;;;;;;;;2080015;28;20263;-61
2022/04/05 00:52:38;;;;;;;11.55;8.65;;;;;;;;;;2081030;28;20192;-62
2022/04/05 00:53:39;;;;;;;9.67;8.63;;;;;;;;;;2073442;28;20180;-58
2022/04/05 00:54:40;;;;;;;10.67;8.37;;;;;;;;;;2080634;28;20567;-58
2022/04/05 00:55:40;;;;;;;11.57;9.73;;;;;;;;;;2072109;28;20173;-60
2022/04/05 00:56:42;;;;;;;11.93;8.23;;;;;;;;;;2072666;28;20251;-56
2022/04/05 00:57:43;;;;;;;11.05;9.30;;;;;;;;;;2074662;28;20181;-64
2022/04/05 00:58:48;;;;;;;11.80;8.90;;;;;;;;;;2079824;28;20250;-59
2022/04/05 00:59:49;;;;;;;9.27;8.25;;;;;;;;;;2079776;28;20233;-61
2022/04/05 01:00:50;;;;;;;10.17;7.97;;;;;;;;;;2080783;28;20165;-61
2022/04/05 01:01:51;;;;;;;9.30;8.40;;;;;;;;;;2080540;28;20183;-59
2022/04/05 01:02:52;;;;;;;11.73;8.77;;;;;;;;;;2078155;28;20548;-56
2022/04/05 01:03:53;;;;;;;9.52;7.22;;;;;;;;;;2080896;28;20227;-61
2022/04/05 01:04:54;;;;;;;10.10;7.47;;;;;;;;;;2071661;28;20584;-59
2022/04/05 01:05:55;;;;;;;9.30;7.53;;;;;;;;;;2072256;28;20614;-58
2022/04/05 01:06:55;;;;;;;9.63;7.32;;;;;;;;;;2080985;28;20187;-60
2022/04/05 01:07:59;;;;;;;8.50;7.33;;;;;;;;;;2080702;28;20684;-55
2022/04/05 01:09:00;;;;;;;7.03;6.38;;;;;;;;;;2076964;28;20618;-59
2022/04/05 01:10:00;;;;;;;7.78;7.00;;;;;;;;;;2080443;28;20171;-56
2022/04/05 01:11:01;;;;;;;8.77;7.32;;;;;;;;;;2076336;28;20200;-57
2022/04/05 01:12:02;;;;;;;9.07;6.30;;;;;;;;;;2080377;28;20172;-60
2022/04/05 01:13:02;;;;;;;6.97;6.20;;;;;;;;;;2076249;28;20195;-62
2022/04/05 01:14:02;;;;;;;7.20;6.27;;;;;;;;;;2079394;28;20212;-55
2022/04/05 01:15:03;;;;;;;6.40;5.70;;;;;;;;;;2080496;28;20262;-59
2022/04/05 01:16:03;;;;;;;6.75;6.15;;;;;;;;;;2079410;28;20176;-56
2022/04/05 01:17:04;;;;;;;10.07;6.68;;;;;;;;;;2072204;28;20553;-61
2022/04/05 01:18:04;;;;;;;7.33;5.90;;;;;;;;;;2071965;28;20173;-60
2022/04/05 01:19:06;;;;;;;6.53;5.93;;;;;;;;;;2080108;28;20190;-55
2022/04/05 01:20:07;;;;;;;7.80;6.03;;;;;;;;;;2071384;28;20180;-61
2022/04/05 01:21:08;;;;;;;6.28;5.50;;;;;;;;;;2071640;28;20184;-59
2022/04/05 01:22:08;;;;;;;5.43;5.00;;;;;;;;;;2080662;28;20678;-61
2022/04/05 01:23:08;;;;;;;4.93;4.53;;;;;;;;;;2076892;28;20207;-59
2022/04/05 01:24:10;;;;;;;5.65;4.57;;;;;;;;;;2080113;28;20801;-60
2022/04/05 01:25:14;;;;;;;6.03;5.20;;;;;;;;;;2077954;28;20180;-59
2022/04/05 01:26:15;;;;;;;7.27;4.77;;;;;;;;;;2080555;28;20565;-61
2022/04/05 01:27:19;;;;;;;5.70;5.00;;;;;;;;;;2077151;28;20199;-56
2022/04/05 01:28:19;;;;;;;5.60;4.85;;;;;;;;;;2079374;28;20180;-57
2022/04/05 01:29:21;;;;;;;5.40;4.90;;;;;;;;;;2078934;28;20208;-57
2022/04/05 01:30:21;;;;;;;4.57;4.27;;;;;;;;;;2079203;28;20255;-60
2022/04/05 01:31:21;;;;;;;3.97;3.70;;;;;;;;;;2080213;28;20176;-65
2022/04/05 01:32:22;;;;;;;4.87;4.03;;;;;;;;;;2079811;28;20180;-57
2022/04/05 01:33:22;;;;;;;4.60;4.20;;;;;;;;;;2079909;28;20188;-59
2022/04/05 01:34:23;;;;;;;4.55;4.15;;;;;;;;;;2078819;28;20207;-56
2022/04/05 01:35:24;;;;;;;4.53;4.07;;;;;;;;;;2079893;28;20222;-57
2022/04/05 01:36:25;;;;;;;5.40;4.40;;;;;;;;;;2081485;28;20229;-55
2022/04/05 01:37:25;;;;;;;4.23;3.83;;;;;;;;;;2073540;28;20247;-61
2022/04/05 01:38:25;;;;;;;5.93;4.68;;;;;;;;;;2065459;28;20253;-59
2022/04/05 01:39:26;;;;;;;4.60;4.20;;;;;;;;;;2070997;28;20275;-57
2022/04/05 01:40:27;;;;;;;5.00;4.53;;;;;;;;;;2082007;28;20172;-58
2022/04/05 01:41:27;;;;;;;4.43;4.13;;;;;;;;;;2079664;28;20180;-64
2022/04/05 01:42:27;;;;;;;5.60;4.75;;;;;;;;;;2081522;28;20597;-61
2022/04/05 01:43:27;;;;;;;4.57;4.23;;;;;;;;;;2081583;28;20179;-58
2022/04/05 01:44:29;;;;;;;4.95;4.55;;;;;;;;;;2082121;28;20192;-58
2022/04/05 01:45:29;;;;;;;5.53;5.07;;;;;;;;;;2072395;28;20219;-59
2022/04/05 01:46:29;;;;;;;5.20;4.80;;;;;;;;;;2073819;28;20261;-55
2022/04/05 01:47:29;;;;;;;5.47;4.97;;;;;;;;;;2077637;28;20192;-60
2022/04/05 01:48:29;;;;;;;5.15;4.65;;;;;;;;;;2081648;28;20563;-58
2022/04/05 01:49:30;;;;;;;4.70;4.30;;;;;;;;;;2078417;28;20180;-59
2022/04/05 01:50:31;;;;;;;5.43;5.00;;;;;;;;;;2082295;28;20204;-56
2022/04/05 01:51:32;;;;;;;5.93;5.43;;;;;;;;;;2074276;28;20177;-56
2022/04/05 01:52:33;;;;;;;5.78;5.28;;;;;;;;;;2081735;28;20198;-53
2022/04/05 01:53:33;;;;;;;6.10;5.60;;;;;;;;;;2081935;28;20180;-56
2022/04/05 01:54:33;;;;;;;6.90;5.45;;;;;;;;;;2081606;28;20211;-59
2022/04/05 01:55:33;;;;;;;6.38;5.85;;;;;;;;;;2073661;28;20247;-59
2022/04/05 01:56:39;;;;;;;6.78;6.15;;;;;;;;;;2072923;28;20555;-59
2022/04/05 01:57:39;;;;;;;6.83;5.47;;;;;;;;;;2082665;28;20601;-56
2022/04/05 01:58:40;;;;;;;6.03;5.27;;;;;;;;;;2072477;28;20195;-62
2022/04/05 01:59:40;;;;;;;6.43;5.93;;;;;;;;;;2072744;28;20590;-58
2022/04/05 02:00:40;;;;;;;7.15;5.88;;;;;;;;;;2080871;28;20573;-58
2022/04/05 02:01:41;;;;;;;6.05;5.18;;;;;;;;;;2082438;28;20176;-58
2022/04/05 02:02:42;;;;;;;5.95;5.43;;;;;;;;;;2080824;28;20578;-59
2022/04/05 02:03:42;;;;;;;6.00;5.40;;;;;;;;;;2082601;28;20556;-54
2022/04/05 02:04:42;;;;;;;6.33;5.83;;;;;;;;;;2080726;28;20209;-62
2022/04/05 02:05:46;;;;;;;6.00;5.35;;;;;;;;;;2082671;28;20177;-60
2022/04/05 02:06:47;;;;;;;6.50;5.85;;;;;;;;;;2079752;28;20181;-56
2022/04/05 02:07:47;;;;;;;6.57;5.93;;;;;;;;;;2073894;28;20276;-61
2022/04/05 02:08:47;;;;;;;6.53;5.93;;;;;;;;;;2065149;28;20266;-57
2022/04/05 02:09:49;;;;;;;5.72;5.30;;;;;;;;;;2065136;28;20181;-58
2022/04/05 02:10:49;;;;;;;6.68;6.03;;;;;;;;;;2062135;28;20172;-55
2022/04/05 02:11:50;;;;;;;6.18;5.53;;;;;;;;;;2065417;28;20256;-56
2022/04/05 02:13:01;;;;;;;5.78;5.28;;;;;;;;;;2066465;28;20169;-62
2022/04/05 02:14:11;;;;;;;5.97;5.40;;;;;;;;;;2065323;28;20462;-54
2022/04/05 02:15:12;;;;;;;6.18;5.43;;;;;;;;;;2064618;28;20184;-58
2022/04/05 02:16:21;;;;;;;5.90;5.20;;;;;;;;;;2061209;28;20229;-59
2022/04/05 02:17:21;;;;;;;6.15;5.55;;;;;;;;;;2071745;28;20597;-60
2022/04/05 02:18:23;;;;;;;5.28;4.78;;;;;;;;;;2065261;28;20232;-63
2022/04/05 02:19:25;;;;;;;6.10;5.07;;;;;;;;;;2064311;28;20228;-60
2022/04/05 02:20:26;;;;;;;8.20;5.45;;;;;;;;;;2063763;28;20177;-61
2022/04/05 02:21:27;;;;;;;6.23;5.30;;;;;;;;;;2072437;28;20176;-57
2022/04/05 02:22:28;;;;;;;5.65;4.57;;;;;;;;;;2072892;28;20181;-59
2022/04/05 02:23:33;;;;;;;5.68;4.93;;;;;;;;;;2073427;28;20661;-58
2022/04/05 02:24:41;;;;;;;5.23;4.83;;;;;;;;;;2073010;28;20192;-60
2022/04/05 02:25:42;;;;;;;5.33;4.70;;;;;;;;;;2072844;28;20575;-55
2022/04/05 02:26:43;;;;;;;5.87;4.57;;;;;;;;;;2064226;28;20264;-60
2022/04/05 02:27:45;;;;;;;6.40;5.22;;;;;;;;;;2064685;28;20253;-57
2022/04/05 02:28:52;;;;;;;5.15;4.55;;;;;;;;;;2065757;28;20162;-56
2022/04/05 02:29:56;;;;;;;5.63;4.53;;;;;;;;;;2064702;28;20185;-56
2022/04/05 02:30:58;;;;;;;5.15;4.72;;;;;;;;;;2065438;28;20170;-56
2022/04/05 02:32:05;;;;;;;5.20;4.77;;;;;;;;;;2066435;28;20174;-60
2022/04/05 02:33:07;;;;;;;5.63;4.97;;;;;;;;;;2072753;28;20268;-58
2022/04/05 02:34:08;;;;;;;5.30;4.80;;;;;;;;;;2065040;28;20196;-54
2022/04/05 02:35:12;;;;;;;4.90;4.55;;;;;;;;;;2065617;28;20263;-56
2022/04/05 02:36:14;;;;;;;5.65;5.05;;;;;;;;;;2065603;28;20177;-55
2022/04/05 02:37:14;;;;;;;5.20;4.80;;;;;;;;;;2065023;28;20560;-63
2022/04/05 02:38:15;;;;;;;5.03;4.47;;;;;;;;;;2073395;28;20184;-63
2022/04/05 02:39:16;;;;;;;6.23;4.93;;;;;;;;;;2072930;28;20260;-56
2022/04/05 02:40:19;;;;;;;4.50;4.20;;;;;;;;;;2072162;28;20177;-53
2022/04/05 02:41:22;;;;;;;5.10;4.53;;;;;;;;;;2082435;28;20174;-53
2022/04/05 02:42:24;;;;;;;5.30;4.82;;;;;;;;;;2072550;28;20180;-56
2022/04/05 02:43:25;;;;;;;5.05;4.50;;;;;;;;;;2065185;28;20173;-60
2022/04/05 02:44:25;;;;;;;6.57;4.35;;;;;;;;;;2067094;28;20194;-56
2022/04/05 02:45:32;;;;;;;5.10;4.60;;;;;;;;;;2081844;28;20199;-56
2022/04/05 02:46:33;;;;;;;4.77;4.33;;;;;;;;;;2073005;28;20231;-54
2022/04/05 02:47:33;;;;;;;4.85;4.40;;;;;;;;;;2072873;28;20208;-57
2022/04/05 02:48:34;;;;;;;4.80;4.50;;;;;;;;;;2072558;28;20548;-62
2022/04/05 02:49:37;;;;;;;4.65;4.20;;;;;;;;;;2067243;28;20182;-61
2022/04/05 02:50:42;;;;;;;5.70;3.85;;;;;;;;;;2064908;28;20260;-57
2022/04/05 02:51:42;;;;;;;5.17;4.77;;;;;;;;;;2072651;28;20172;-58
2022/04/05 02:52:50;;;;;;;4.03;3.72;;;;;;;;;;2067087;28;20212;-64
2022/04/05 02:53:52;;;;;;;4.90;4.50;;;;;;;;;;2072329;28;20696;-62
2022/04/05 02:54:53;;;;;;;4.50;4.20;;;;;;;;;;2064703;28;20216;-60
2022/04/05 02:55:55;;;;;;;6.50;4.20;;;;;;;;;;2064892;28;21720;-59
2022/04/05 02:56:55;;;;;;;4.88;4.22;;;;;;;;;;2072764;28;20212;-57
2022/04/05 02:57:56;;;;;;;4.20;3.90;;;;;;;;;;2079782;28;20172;-57
2022/04/05 02:59:03;;;;;;;4.15;3.85;;;;;;;;;;2068311;28;20173;-58
2022/04/05 03:00:06;;;;;;;4.53;4.10;;;;;;;;;;2064376;28;20178;-60
2022/04/05 03:01:07;;;;;;;4.88;4.47;;;;;;;;;;2065167;28;20231;-62
2022/04/05 03:02:07;;;;;;;4.25;3.95;;;;;;;;;;2072766;28;20708;-55
2022/04/05 03:03:08;;;;;;;4.70;3.85;;;;;;;;;;2081705;28;20176;-63
2022/04/05 03:04:09;;;;;;;4.33;3.93;;;;;;;;;;2072557;28;20211;-58
2022/04/05 03:05:10;;;;;;;4.03;3.63;;;;;;;;;;2064259;28;20229;-58
2022/04/05 03:06:11;;;;;;;4.63;4.07;;;;;;;;;;2064445;28;20193;-59
2022/04/05 03:07:15;;;;;;;4.13;3.83;;;;;;;;;;2064566;28;20181;-56
2022/04/05 03:08:16;;;;;;;4.73;4.33;;;;;;;;;;2064728;28;20177;-61
2022/04/05 03:09:17;;;;;;;4.07;3.78;;;;;;;;;;2064640;28;20562;-58
2022/04/05 03:10:17;;;;;;;5.57;4.03;;;;;;;;;;2072331;28;20784;-59
2022/04/05 03:11:22;;;;;;;4.23;3.83;;;;;;;;;;2072627;28;20696;-57
2022/04/05 03:12:26;;;;;;;3.77;3.50;;;;;;;;;;2066677;28;20244;-58
2022/04/05 03:13:27;;;;;;;4.37;3.83;;;;;;;;;;2072796;28;20256;-60
2022/04/05 03:14:28;;;;;;;6.33;3.60;;;;;;;;;;2071176;28;20212;-57
2022/04/05 03:15:29;;;;;;;5.65;4.00;;;;;;;;;;2064630;28;20166;-57
2022/04/05 03:16:31;;;;;;;3.80;3.53;;;;;;;;;;2064650;28;20178;-63
2022/04/05 03:17:35;;;;;;;4.03;3.70;;;;;;;;;;2056914;28;20180;-58
2022/04/05 03:18:36;;;;;;;4.50;3.43;;;;;;;;;;2057017;28;20265;-60
2022/04/05 03:19:36;;;;;;;6.10;3.70;;;;;;;;;;2072492;28;20212;-57
2022/04/05 03:20:38;;;;;;;5.03;3.93;;;;;;;;;;2063950;28;20268;-58
2022/04/05 03:21:39;;;;;;;5.60;3.90;;;;;;;;;;2069293;28;20177;-59
2022/04/05 03:22:40;;;;;;;4.05;3.80;;;;;;;;;;2082032;28;20182;-62
2022/04/05 03:23:40;;;;;;;4.22;3.67;;;;;;;;;;2081124;28;20543;-61
2022/04/05 03:24:40;;;;;;;4.10;3.80;;;;;;;;;;2081110;28;20203;-59
2022/04/05 03:25:41;;;;;;;3.80;3.50;;;;;;;;;;2072706;28;20610;-63
2022/04/05 03:26:41;;;;;;;3.95;3.55;;;;;;;;;;2072689;28;20185;-62
2022/04/05 03:27:42;;;;;;;4.35;3.78;;;;;;;;;;2072776;28;20203;-62
2022/04/05 03:28:44;;;;;;;4.30;3.90;;;;;;;;;;2068925;28;20177;-58
2022/04/05 03:29:45;;;;;;;4.20;3.90;;;;;;;;;;2072750;28;20189;-60
2022/04/05 03:30:47;;;;;;;4.10;3.80;;;;;;;;;;2064177;28;20174;-64
2022/04/05 03:31:48;;;;;;;4.07;3.77;;;;;;;;;;2073108;28;20261;-58
2022/04/05 03:32:49;;;;;;;4.82;3.90;;;;;;;;;;2072787;28;20658;-57
2022/04/05 03:33:51;;;;;;;4.80;4.00;;;;;;;;;;2064957;28;20555;-56
2022/04/05 03:34:53;;;;;;;4.13;3.75;;;;;;;;;;2072491;28;20172;-61
2022/04/05 03:35:55;;;;;;;5.27;4.00;;;;;;;;;;2060378;28;20983;-56
2022/04/05 03:36:56;;;;;;;3.80;3.50;;;;;;;;;;2064799;28;20224;-57
2022/04/05 03:37:57;;;;;;;3.93;3.50;;;;;;;;;;2064705;28;20741;-60
2022/04/05 03:38:57;;;;;;;3.97;3.55;;;;;;;;;;2064551;28;20186;-59
2022/04/05 03:39:59;;;;;;;5.13;4.07;;;;;;;;;;2063775;28;20201;-58
2022/04/05 03:40:59;;;;;;;4.60;3.75;;;;;;;;;;2065073;28;20593;-54
2022/04/05 03:42:00;;;;;;;4.07;3.80;;;;;;;;;;2064236;28;20178;-57
2022/04/05 03:43:01;;;;;;;3.70;3.40;;;;;;;;;;2070446;28;20171;-58
2022/04/05 03:44:02;;;;;;;4.53;4.10;;;;;;;;;;2068036;28;20817;-57
2022/04/05 03:45:09;;;;;;;6.83;4.27;;;;;;;;;;2072493;28;20184;-60
2022/04/05 03:46:10;;;;;;;4.10;3.80;;;;;;;;;;2072758;28;20173;-60
2022/04/05 03:47:10;;;;;;;5.13;3.80;;;;;;;;;;2064085;28;20565;-61
2022/04/05 03:48:11;;;;;;;4.70;4.30;;;;;;;;;;2064446;28;20180;-62
2022/04/05 03:49:12;;;;;;;4.03;3.73;;;;;;;;;;2062010;28;20184;-58
2022/04/05 03:50:12;;;;;;;6.70;4.15;;;;;;;;;;2071080;28;20179;-60
2022/04/05 03:51:16;;;;;;;4.28;3.72;;;;;;;;;;2072429;28;20184;-56
2022/04/05 03:52:26;;;;;;;4.18;3.88;;;;;;;;;;2066327;28;20169;-60
2022/04/05 03:53:26;;;;;;;4.40;4.10;;;;;;;;;;2064208;28;20189;-61
2022/04/05 03:54:27;;;;;;;4.00;3.70;;;;;;;;;;2071963;28;20732;-59
2022/04/05 03:55:33;;;;;;;4.30;3.92;;;;;;;;;;2072652;28;20223;-64
2022/04/05 03:56:35;;;;;;;5.10;3.70;;;;;;;;;;2072132;28;20650;-61
2022/04/05 03:57:39;;;;;;;4.43;4.03;;;;;;;;;;2056233;28;20171;-55
2022/04/05 03:58:39;;;;;;;4.25;3.67;;;;;;;;;;2064634;28;20268;-62
2022/04/05 03:59:39;;;;;;;4.13;3.67;;;;;;;;;;2072440;28;20204;-62
2022/04/05 04:00:40;;;;;;;4.03;3.72;;;;;;;;;;2064069;28;20174;-59
2022/04/05 04:01:52;;;;;;;3.67;3.47;;;;;;;;;;2072385;28;20192;-58
2022/04/05 04:02:53;;;;;;;4.10;3.73;;;;;;;;;;2064445;28;20185;-58
2022/04/05 04:03:53;;;;;;;5.23;3.60;;;;;;;;;;2072126;28;20729;-60
2022/04/05 04:04:54;;;;;;;3.95;3.60;;;;;;;;;;2071209;28;20178;-58
2022/04/05 04:05:55;;;;;;;3.70;3.40;;;;;;;;;;2061255;28;20671;-57
2022/04/05 04:06:56;;;;;;;4.10;3.53;;;;;;;;;;2052581;28;20311;-57
2022/04/05 04:07:57;;;;;;;4.47;4.07;;;;;;;;;;2064245;28;20193;-58
2022/04/05 04:08:58;;;;;;;4.30;4.00;;;;;;;;;;2062932;28;20170;-57
2022/04/05 04:10:02;;;;;;;4.57;4.17;;;;;;;;;;2059677;28;20732;-61
2022/04/05 04:11:04;;;;;;;4.13;3.77;;;;;;;;;;2059698;28;20169;-57
2022/04/05 04:12:06;;;;;;;5.03;4.07;;;;;;;;;;2060784;28;20276;-61
2022/04/05 04:13:07;;;;;;;5.67;3.73;;;;;;;;;;2072230;28;20239;-57
2022/04/05 04:15:39;;;;;;;5.22;4.15;;;;;;;;;;2063588;28;20315;-63
2022/04/05 04:16:40;;;;;;;6.00;4.17;;;;;;;;;;2064252;28;20205;-63
2022/04/05 04:17:41;;;;;;;4.63;4.18;;;;;;;;;;2063540;28;20323;-62
2022/04/05 04:18:41;;;;;;;5.13;4.67;;;;;;;;;;2067493;28;20224;-61
2022/04/05 04:19:42;;;;;;;7.35;4.25;;;;;;;;;;2066827;28;20306;-63
2022/04/05 04:20:42;;;;;;;4.53;4.17;;;;;;;;;;2060999;28;20185;-63
2022/04/05 04:21:44;;;;;;;4.70;4.20;;;;;;;;;;2066653;28;20189;-61
2022/04/05 04:22:45;;;;;;;5.23;4.73;;;;;;;;;;2078293;28;20672;-62
2022/04/05 04:23:45;;;;;;;5.03;4.00;;;;;;;;;;2064099;28;20597;-62
2022/04/05 04:24:45;;;;;;;5.17;4.77;;;;;;;;;;2066902;28;20181;-63
2022/04/05 04:25:46;;;;;;;6.10;4.67;;;;;;;;;;2071377;28;20177;-61
2022/04/05 04:26:47;;;;;;;6.87;4.47;;;;;;;;;;2068942;28;20176;-63
2022/04/05 04:27:47;;;;;;;4.95;4.05;;;;;;;;;;2057532;28;20260;-60
2022/04/05 04:28:50;;;;;;;4.73;4.33;;;;;;;;;;2071852;28;20177;-63
2022/04/05 04:29:51;;;;;;;4.53;4.13;;;;;;;;;;2078247;28;20343;-63
2022/04/05 04:30:51;;;;;;;4.60;4.20;;;;;;;;;;2078723;28;20292;-63
2022/04/05 04:31:51;;;;;;;5.70;4.00;;;;;;;;;;2080330;28;20723;-64
2022/04/05 04:32:53;;;;;;;4.40;4.00;;;;;;;;;;2082342;28;20191;-64
2022/04/05 04:33:54;;;;;;;4.70;4.30;;;;;;;;;;2080516;28;20168;-61
2022/04/05 04:34:54;;;;;;;4.25;3.95;;;;;;;;;;2070731;28;20229;-63
2022/04/05 04:35:54;;;;;;;4.50;4.10;;;;;;;;;;2073582;28;20178;-60
2022/04/05 04:36:56;;;;;;;5.25;4.43;;;;;;;;;;2078160;28;20863;-61
2022/04/05 04:37:56;;;;;;;4.78;4.30;;;;;;;;;;2080868;28;20192;-60
2022/04/05 04:38:57;;;;;;;6.00;4.30;;;;;;;;;;2070520;28;20180;-60
2022/04/05 04:39:57;;;;;;;4.35;3.95;;;;;;;;;;2078028;28;20184;-63
2022/04/05 04:40:58;;;;;;;3.97;3.67;;;;;;;;;;2075941;28;20184;-59
2022/04/05 04:41:58;;;;;;;4.25;3.85;;;;;;;;;;2072061;28;20288;-62
2022/04/05 04:42:58;;;;;;;5.50;4.13;;;;;;;;;;2080800;28;20190;-63
2022/04/05 04:43:58;;;;;;;4.65;4.13;;;;;;;;;;2070994;28;20192;-58
2022/04/05 04:44:59;;;;;;;5.73;4.07;;;;;;;;;;2075075;28;20564;-63
2022/04/05 04:45:59;;;;;;;5.38;4.25;;;;;;;;;;2084159;28;20183;-61
2022/04/05 04:46:59;;;;;;;4.93;4.53;;;;;;;;;;2081464;28;20646;-63
2022/04/05 04:48:00;;;;;;;5.03;4.43;;;;;;;;;;2072925;28;20193;-61
2022/04/05 04:49:00;;;;;;;4.93;3.92;;;;;;;;;;2064756;28;20166;-63
2022/04/05 04:50:00;;;;;;;4.70;4.00;;;;;;;;;;2074458;28;20537;-65
2022/04/05 04:51:01;;;;;;;5.38;4.38;;;;;;;;;;2080512;28;20192;-64
2022/04/05 04:52:02;;;;;;;4.55;4.15;;;;;;;;;;2076741;28;20264;-63
2022/04/05 04:53:02;;;;;;;5.47;4.10;;;;;;;;;;2074755;28;20172;-66
2022/04/05 04:54:02;;;;;;;4.93;4.53;;;;;;;;;;2071412;28;20176;-65
2022/04/05 04:55:03;;;;;;;6.03;4.33;;;;;;;;;;2075964;28;20192;-64
2022/04/05 04:56:03;;;;;;;4.53;4.13;;;;;;;;;;2085097;28;20320;-63
2022/04/05 04:57:04;;;;;;;5.93;4.53;;;;;;;;;;2084537;28;20782;-62
2022/04/05 04:58:04;;;;;;;4.63;4.33;;;;;;;;;;2081302;28;20179;-61
2022/04/05 04:59:04;;;;;;;4.18;3.85;;;;;;;;;;2078620;28;20236;-62
2022/04/05 05:00:05;;;;;;;4.30;3.90;;;;;;;;;;2077161;28;20184;-63
2022/04/05 05:01:06;;;;;;;4.80;4.37;;;;;;;;;;2076292;28;20680;-64
2022/04/05 05:02:06;;;;;;;4.30;4.00;;;;;;;;;;2085074;28;20179;-64
2022/04/05 05:03:06;;;;;;;4.57;4.27;;;;;;;;;;2081500;28;20263;-63
2022/04/05 05:04:07;;;;;;;5.53;4.63;;;;;;;;;;2077644;28;20710;-63
2022/04/05 05:05:08;;;;;;;5.07;4.60;;;;;;;;;;2074445;28;20266;-64
2022/04/05 05:06:08;;;;;;;5.00;4.63;;;;;;;;;;2081645;28;20172;-63
2022/04/05 05:07:08;;;;;;;4.85;4.45;;;;;;;;;;2083185;28;20180;-61
2022/04/05 05:08:08;;;;;;;5.43;5.03;;;;;;;;;;2077342;28;20226;-61
2022/04/05 05:09:09;;;;;;;5.03;4.63;;;;;;;;;;2077045;28;20176;-61
2022/04/05 05:10:11;;;;;;;5.73;4.83;;;;;;;;;;2075731;28;20209;-62
2022/04/05 05:11:11;;;;;;;5.45;5.05;;;;;;;;;;2077168;28;20243;-63
2022/04/05 05:12:12;;;;;;;6.07;5.57;;;;;;;;;;2084690;28;20179;-63
2022/04/05 05:13:12;;;;;;;5.90;5.13;;;;;;;;;;2085590;28;20201;-60
2022/04/05 05:14:13;;;;;;;5.73;4.53;;;;;;;;;;2077276;28;20223;-63
2022/04/05 05:15:16;;;;;;;6.07;4.93;;;;;;;;;;2078320;28;20238;-63
2022/04/05 05:16:17;;;;;;;6.07;5.10;;;;;;;;;;2081041;28;20172;-63
2022/04/05 05:17:17;;;;;;;5.15;4.68;;;;;;;;;;2082227;28;20180;-62
2022/04/05 05:18:17;;;;;;;6.40;5.80;;;;;;;;;;2085317;28;20539;-61
2022/04/05 05:19:17;;;;;;;4.80;4.28;;;;;;;;;;2081462;28;20700;-62
2022/04/05 05:20:18;;;;;;;6.00;4.43;;;;;;;;;;2079458;28;20192;-62
2022/04/05 05:21:19;;;;;;;5.10;4.60;;;;;;;;;;2075724;28;20267;-65
2022/04/05 05:22:19;;;;;;;5.30;4.80;;;;;;;;;;2077926;28;20673;-58
2022/04/05 05:23:19;;;;;;;5.45;4.95;;;;;;;;;;2080920;28;20172;-61
2022/04/05 05:24:19;;;;;;;5.10;4.57;;;;;;;;;;2080364;28;20203;-61
2022/04/05 05:25:20;;;;;;;5.18;4.50;;;;;;;;;;2079236;28;20230;-61
2022/04/05 05:26:23;;;;;;;5.32;4.53;;;;;;;;;;2079784;28;20176;-62
2022/04/05 05:27:30;;;;;;;5.80;5.10;;;;;;;;;;2078387;28;20222;-64
2022/04/05 05:28:30;;;;;;;6.07;5.30;;;;;;;;;;2073346;28;20173;-61
2022/04/05 05:29:31;;;;;;;5.47;4.97;;;;;;;;;;2079679;28;20208;-62
2022/04/05 05:30:31;;;;;;;5.45;4.90;;;;;;;;;;2087624;28;20171;-61
2022/04/05 05:31:31;;;;;;;6.50;4.70;;;;;;;;;;2089751;28;20180;-60
2022/04/05 05:32:32;;;;;;;5.75;5.25;;;;;;;;;;2074762;28;20603;-60
2022/04/05 05:33:32;;;;;;;7.13;5.45;;;;;;;;;;2086193;28;20330;-56
2022/04/05 05:34:32;;;;;;;6.05;5.53;;;;;;;;;;2077268;28;20235;-54
2022/04/05 05:35:33;;;;;;;7.40;5.07;;;;;;;;;;2080057;28;20176;-62
2022/04/05 05:36:33;;;;;;;6.90;5.03;;;;;;;;;;2074779;28;20267;-56
2022/04/05 05:37:34;;;;;;;5.90;5.30;;;;;;;;;;2080549;28;20168;-60
2022/04/05 05:38:34;;;;;;;5.95;5.32;;;;;;;;;;2079824;28;20654;-56
2022/04/05 05:39:35;;;;;;;4.35;4.00;;;;;;;;;;2080409;28;20632;-61
2022/04/05 05:40:35;;;;;;;6.53;4.97;;;;;;;;;;2074183;28;20218;-63
2022/04/05 05:41:35;;;;;;;5.80;5.30;;;;;;;;;;2080019;28;20278;-58
2022/04/05 05:42:45;;;;;;;5.50;5.00;;;;;;;;;;2079897;28;20637;-59
2022/04/05 05:43:46;;;;;;;5.63;5.07;;;;;;;;;;2078355;28;20175;-56
2022/04/05 05:44:46;;;;;;;5.40;4.90;;;;;;;;;;2080043;28;20567;-61
2022/04/05 05:45:47;;;;;;;8.90;5.73;;;;;;;;;;2079014;28;20178;-59
2022/04/05 05:46:47;;;;;;;6.10;5.60;;;;;;;;;;2071194;28;20818;-60
2022/04/05 05:47:48;;;;;;;9.18;5.70;;;;;;;;;;2080110;28;20215;-60
2022/04/05 05:48:48;;;;;;;6.82;5.70;;;;;;;;;;2080521;28;20180;-62
2022/04/05 05:49:48;;;;;;;8.90;5.63;;;;;;;;;;2079845;28;20172;-58
2022/04/05 05:50:49;;;;;;;6.78;6.18;;;;;;;;;;2071274;28;20558;-63
2022/04/05 05:51:50;;;;;;;6.45;5.85;;;;;;;;;;2073108;28;20165;-59
2022/04/05 05:52:50;;;;;;;6.70;5.88;;;;;;;;;;2081117;28;20259;-63
2022/04/05 05:53:51;;;;;;;6.88;6.28;;;;;;;;;;2078140;28;20318;-60
2022/04/05 05:54:52;;;;;;;6.57;5.75;;;;;;;;;;2079154;28;20268;-61
2022/04/05 05:55:52;;;;;;;8.00;6.20;;;;;;;;;;2080136;28;21010;-62
2022/04/05 05:56:53;;;;;;;7.97;6.20;;;;;;;;;;2079039;28;20169;-63
2022/04/05 05:57:53;;;;;;;7.30;5.57;;;;;;;;;;2082902;28;20274;-63
2022/04/05 05:58:53;;;;;;;6.50;5.85;;;;;;;;;;2079624;28;20180;-63
2022/04/05 05:59:53;;;;;;;6.47;5.90;;;;;;;;;;2080200;28;20173;-61
2022/04/05 06:00:54;;;;;;;6.68;5.82;;;;;;;;;;2079917;28;20177;-63
2022/04/05 06:01:56;;;;;;;8.07;6.05;;;;;;;;;;2080662;28;20824;-60
2022/04/05 06:02:58;;;;;;;7.20;5.97;;;;;;;;;;2072077;28;20209;-64
2022/04/05 06:03:58;;;;;;;8.23;6.35;;;;;;;;;;2071771;28;20267;-63
2022/04/05 06:04:58;;;;;;;8.30;5.90;;;;;;;;;;2074699;28;20199;-62
2022/04/05 06:05:58;;;;;;;7.93;6.85;;;;;;;;;;2074484;28;20172;-62
2022/04/05 06:06:59;;;;;;;6.72;6.13;;;;;;;;;;2081474;28;20674;-59
2022/04/05 06:07:59;;;;;;;6.82;5.95;;;;;;;;;;2079230;28;20234;-62